To NAV CANADA Home Page Login to a new session Search on AWWS site Disclaimer Vers la page française équivalente Tips FAQ What's new on the site To the Forecasts and Observations / NOTAM section To "File a Flight Plan" website Publications and other links Update of the User's profile FIC Telephone Numbers My Weather Data Folder Route Weather Data Regional Weather Data Local Weather Data To the Forecasts and Observations / NOTAM section
Request Generated 03/19/2019 at 23:03:49 UTC . Weather information available at that time is displayed.

METAR/TAF

SWIFT CURRENT/SK    (show WxCam)

METAR CYYN 192300Z AUTO 28012G19KT 9SM CLR 10/04 A3010 RMK SLP219=
METAR CYYN 192200Z AUTO 27015KT 9SM CLR 11/02 A3010 RMK SLP219=
METAR CYYN 192100Z AUTO 27014KT 9SM CLR 10/01 A3011 RMK SLP223=

TAF CYYN 191738Z 1918/2006 27015KT P6SM SKC
BECMG 1918/1920 29018G28KT
BECMG 2001/2003 27010KT
RMK FCST BASED ON AUTO OBS. NXT FCST BY 200000Z=
Your time UTC time
Weather data provided by Environment Canada and NAV CANADA